메인 페이지
METAR-TAF:

METAR-TAF

공항 :

킬리만자로 산, 탄자니아

위도: 03-25S, 경도: 037-04E, 고도: 891m

현재 날씨관측

예보는 58분 전, 10:00시(UTC)에 발표되었습니다.
7kt
온도 23°C
습도 61%
기압 1023 hPa
시정 10km 이상
고도 2500ft 상공 구름 많음

METAR: HTKJ 131000Z 08007KT 9999 BKN025 23/15 Q1023 NOSIG

시각: 13:58 (10:58 UTC)

예보

예보는 5 시간 58분 전, 05:00시(UTC)에 발표되었습니다.
예보 대상 시간: 13일 06시부터 14일 06시까지 (UTC)
5kt
시정 10km 이상
고도 2800ft 상공 구름 많음

TAF: HTKJ 130500Z 1306/1406 09005KT 9999 BKN028

4,000개 이상의 공항 관측 자료 및 예보 (METAR 및 TAF 보고).

지도상에서 검색 가능한 기상관측소가 노란 점과 빨간 점으로 표시되어 있습니다.

기상관측소 명을 보려면 표시 위로 마우스를 이동하세요.

날씨 관측과 예보를 보려면 클릭하세요.

지도 변경 : 확대하려면 엑스 표시가 있는 녹색 버튼, 축소하려면 빼기 표시가 있는 녹색 버튼, 다음 페이지의 지도를 보려면 녹색 화살표를 클릭하세요.


METAR-TAF: